USTRANSCOM 8476




KDOV
Dover Air Force Base
Dover, Delaware
PAED
Elmendorf Air Force Base
Elmendorf, Alaska

Activity Log

Date Flight Route Aircraft Duration
No Flights Yet

Route Details

Aircraft Information
Group: Boeing Common
Types: B752,B762,B763
Route Data
Demand: V
Distance: 2955nm
Duration: 7h 40m
Recm'd Route: JERES J211 YNG ECK SSM V300 YQT J513 YRL J521 YTH J521 YYL YSM J521 YFS 63N30 TIBOY NCA17 ORT HOJOE JINXX1
Origin Wx: KDOV 252256Z AUTO 32009KT 10SM CLR 01/M05 A3006 RMK AO2 SLP183 T00131046 $
Dest. Wx: PAED 252256Z 19004KT 6SM -SN SCT010 BKN020 M01/M02 A3005 RMK AO2A VIS NW 4 SLP174 P0000 T10101023
Notes: USTRANSCOM CONTRACT FLIGHT

Financial History
Total Freight: 0lbs
Average Load: 0lbs/flt
Fuel Used: 0lbs
Avg. Fuel Used: 0lbs/flt
Fuel Expense: $0
Avg. Fuel Expense: $0
Avg. Fuel Cost: $0/lbs
Total Gross Income: $0
Pilot Pay: $0
Total Expenses: $0
Total Revenue: $0
Average Revenue: $0